createdAt,value
2017-08-17T00:00:44.045Z,27.6
2017-08-17T00:03:16.809Z,27.7
2017-08-17T00:04:18.282Z,27.7
2017-08-17T00:05:19.385Z,27.7
2017-08-17T00:06:21.515Z,27.7
2017-08-17T00:07:22.984Z,27.7
2017-08-17T00:08:24.780Z,27.7
2017-08-17T00:09:25.913Z,27.7
2017-08-17T00:10:28.040Z,27.7
2017-08-17T00:11:30.173Z,27.7
2017-08-17T00:12:32.307Z,27.7
2017-08-17T00:13:34.441Z,27.6
2017-08-17T00:14:36.238Z,27.6
2017-08-17T00:15:38.371Z,27.7
2017-08-17T00:16:40.167Z,27.7
2017-08-17T00:17:42.322Z,27.7
2017-08-17T00:18:44.105Z,27.7
2017-08-17T00:19:46.236Z,27.7
2017-08-17T00:20:48.366Z,27.6
2017-08-17T00:21:50.499Z,27.7
2017-08-17T00:22:52.630Z,27.7
2017-08-17T00:23:54.429Z,27.7
2017-08-17T00:24:56.563Z,27.7
2017-08-17T00:25:58.690Z,27.6
2017-08-17T00:27:00.818Z,27.7
2017-08-17T00:28:02.616Z,27.7
2017-08-17T00:29:04.081Z,27.7
2017-08-17T00:30:05.882Z,27.6
2017-08-17T00:31:08.014Z,27.7
2017-08-17T00:32:09.794Z,27.6
2017-08-17T00:33:11.249Z,27.6
2017-08-17T00:34:13.381Z,27.7
2017-08-17T00:35:14.846Z,27.6
2017-08-17T00:36:16.647Z,27.6
2017-08-17T00:37:18.443Z,27.6
2017-08-17T00:38:20.245Z,27.6
2017-08-17T00:39:22.378Z,27.6
2017-08-17T00:40:24.174Z,27.6
2017-08-17T00:41:25.969Z,27.6
2017-08-17T00:42:27.436Z,27.6
2017-08-17T00:43:28.883Z,27.6
2017-08-17T00:44:31.014Z,27.6
2017-08-17T00:45:32.478Z,27.7
2017-08-17T00:46:34.277Z,27.6
2017-08-17T00:47:36.052Z,27.6
2017-08-17T00:48:37.853Z,27.6
2017-08-17T00:49:39.653Z,27.6
2017-08-17T00:50:41.101Z,27.6
2017-08-17T00:51:43.261Z,27.5
2017-08-17T00:52:45.379Z,27.6
2017-08-17T00:53:47.155Z,27.6
2017-08-17T00:54:49.304Z,27.6
2017-08-17T00:55:51.078Z,27.6
2017-08-17T00:56:53.210Z,27.6
2017-08-17T00:57:55.006Z,27.6
2017-08-17T00:58:57.139Z,27.5
2017-08-17T00:59:59.268Z,27.5
2017-08-17T01:01:01.399Z,27.5
2017-08-17T01:02:03.211Z,27.5
2017-08-17T01:03:05.003Z,27.6
2017-08-17T01:04:07.132Z,27.6
2017-08-17T01:05:08.581Z,27.5
2017-08-17T01:06:10.713Z,27.5
2017-08-17T01:07:12.195Z,27.5
2017-08-17T01:08:14.322Z,27.5
2017-08-17T01:09:16.125Z,27.6
2017-08-17T01:10:18.254Z,27.5
2017-08-17T01:11:19.393Z,27.5
2017-08-17T01:12:21.522Z,27.5
2017-08-17T01:13:22.637Z,27.5
2017-08-17T01:14:23.749Z,27.5
2017-08-17T01:15:25.536Z,27.5
2017-08-17T01:16:27.333Z,27.5
2017-08-17T01:17:29.466Z,27.5
2017-08-17T01:18:30.908Z,27.6
2017-08-17T01:19:32.707Z,27.6
2017-08-17T01:20:34.151Z,27.5
2017-08-17T01:21:35.955Z,27.6
2017-08-17T01:22:37.729Z,27.6
2017-08-17T01:23:39.860Z,27.5
2017-08-17T01:24:41.991Z,27.5
2017-08-17T01:25:43.790Z,27.5
2017-08-17T01:26:45.591Z,27.6
2017-08-17T01:27:47.385Z,27.6
2017-08-17T01:28:49.515Z,27.5
2017-08-17T01:29:51.647Z,27.5
2017-08-17T01:30:53.786Z,27.5
2017-08-17T01:31:55.565Z,27.6
2017-08-17T01:32:57.697Z,27.6
2017-08-17T01:33:59.827Z,27.5
2017-08-17T01:35:01.627Z,27.5
2017-08-17T01:36:03.758Z,27.4
2017-08-17T01:37:05.200Z,27.4
2017-08-17T01:38:07.340Z,27.4
2017-08-17T01:39:08.443Z,27.5
2017-08-17T01:40:10.595Z,27.5
2017-08-17T01:41:12.060Z,27.5
2017-08-17T01:42:14.217Z,27.5
2017-08-17T01:43:16.346Z,27.4
2017-08-17T01:44:17.808Z,27.5
2017-08-17T01:45:19.595Z,27.4
2017-08-17T01:46:21.721Z,27.5
2017-08-17T01:47:23.518Z,27.5
2017-08-17T01:48:25.647Z,27.4
2017-08-17T01:49:27.442Z,27.5
2017-08-17T01:50:29.246Z,27.5
2017-08-17T01:51:31.041Z,27.5
2017-08-17T01:52:32.839Z,27.5
2017-08-17T01:53:34.972Z,27.4
2017-08-17T01:54:36.773Z,27.4
2017-08-17T01:55:38.570Z,27.5
2017-08-17T01:56:40.740Z,27.5
2017-08-17T01:57:42.539Z,27.5
2017-08-17T01:58:44.690Z,27.5
2017-08-17T01:59:46.820Z,27.5
2017-08-17T02:00:48.622Z,27.5
2017-08-17T02:01:50.399Z,27.5
2017-08-17T02:02:52.532Z,27.5
2017-08-17T02:03:54.348Z,27.5
2017-08-17T02:04:56.481Z,27.5
2017-08-17T02:05:58.276Z,27.5
2017-08-17T02:07:00.077Z,27.4
2017-08-17T02:08:01.873Z,27.5
2017-08-17T02:09:04.002Z,27.4
2017-08-17T02:10:06.132Z,27.5
2017-08-17T02:11:08.263Z,27.4
2017-08-17T02:12:10.061Z,27.4
2017-08-17T02:13:11.861Z,27.4
2017-08-17T02:14:13.992Z,27.5
2017-08-17T02:15:16.123Z,27.5
2017-08-17T02:16:17.919Z,27.4
2017-08-17T02:17:19.722Z,27.5
2017-08-17T02:18:21.189Z,27.4
2017-08-17T02:19:22.629Z,27.5
2017-08-17T02:20:24.073Z,27.5
2017-08-17T02:21:26.203Z,27.5
2017-08-17T02:22:27.668Z,27.5
2017-08-17T02:23:29.442Z,27.5
2017-08-17T02:24:31.572Z,27.4
2017-08-17T02:25:33.020Z,27.4
2017-08-17T02:26:35.155Z,27.5
2017-08-17T02:27:36.618Z,27.5
2017-08-17T02:28:38.067Z,27.5
2017-08-17T02:29:39.869Z,27.4
2017-08-17T02:30:42.002Z,27.5
2017-08-17T02:31:43.796Z,27.5
2017-08-17T02:32:45.575Z,27.4
2017-08-17T02:33:47.352Z,27.5
2017-08-17T02:34:48.797Z,27.5
2017-08-17T02:35:50.928Z,27.4
2017-08-17T02:36:52.393Z,27.4
2017-08-17T02:37:54.524Z,27.4
2017-08-17T02:38:56.654Z,27.5
2017-08-17T02:39:58.858Z,27.5
2017-08-17T02:41:00.620Z,27.4
2017-08-17T02:42:02.089Z,27.5
2017-08-17T02:43:03.891Z,27.4
2017-08-17T02:44:06.022Z,27.4
2017-08-17T02:45:07.820Z,27.4
2017-08-17T02:46:09.601Z,27.5
2017-08-17T02:47:11.077Z,27.4
2017-08-17T02:48:12.843Z,27.5
2017-08-17T02:49:14.987Z,27.5
2017-08-17T02:50:17.122Z,27.5
2017-08-17T02:51:19.253Z,27.4
2017-08-17T02:52:21.389Z,27.5
2017-08-17T02:53:23.519Z,27.4
2017-08-17T02:54:25.320Z,27.6
2017-08-17T02:55:27.118Z,27.4
2017-08-17T02:56:29.252Z,27.5
2017-08-17T02:57:31.047Z,27.5
2017-08-17T02:58:33.177Z,27.5
2017-08-17T02:59:34.972Z,27.4
2017-08-17T03:00:37.103Z,27.5
2017-08-17T03:01:39.235Z,27.4
2017-08-17T03:02:41.367Z,27.4
2017-08-17T03:03:43.501Z,27.5
2017-08-17T03:04:45.297Z,27.4
2017-08-17T03:05:47.427Z,27.5
2017-08-17T03:06:49.225Z,27.5
2017-08-17T03:07:51.357Z,27.4
2017-08-17T03:08:53.152Z,27.4
2017-08-17T03:09:54.926Z,27.4
2017-08-17T03:10:57.056Z,27.4
2017-08-17T03:11:59.185Z,27.5
2017-08-17T03:13:00.986Z,27.5
2017-08-17T03:14:02.785Z,27.4
2017-08-17T03:15:04.233Z,27.3
2017-08-17T03:16:06.033Z,27.4
2017-08-17T03:17:07.832Z,27.4
2017-08-17T03:18:09.629Z,27.4
2017-08-17T03:19:11.763Z,27.4
2017-08-17T03:20:13.894Z,27.3
2017-08-17T03:21:15.706Z,27.5
2017-08-17T03:22:17.179Z,27.3
2017-08-17T03:23:18.646Z,27.5
2017-08-17T03:24:20.443Z,27.5
2017-08-17T03:25:22.253Z,27.4
2017-08-17T03:26:24.383Z,27.4
2017-08-17T03:27:25.500Z,27.5
2017-08-17T03:28:26.610Z,27.4
2017-08-17T03:29:28.410Z,27.4
2017-08-17T03:30:30.541Z,27.4
2017-08-17T03:31:32.672Z,27.4
2017-08-17T03:32:34.447Z,27.4
2017-08-17T03:33:35.896Z,27.4
2017-08-17T03:34:38.027Z,27.5
2017-08-17T03:35:39.474Z,27.4
2017-08-17T03:36:40.924Z,27.4
2017-08-17T03:37:42.719Z,27.5
2017-08-17T03:38:44.516Z,27.5
2017-08-17T03:39:46.319Z,27.5
2017-08-17T03:40:48.123Z,27.4
2017-08-17T03:41:49.919Z,27.4
2017-08-17T03:42:51.716Z,27.4
2017-08-17T03:43:53.844Z,27.5
2017-08-17T03:44:55.294Z,27.4
2017-08-17T03:45:57.092Z,27.5
2017-08-17T03:46:59.222Z,27.4
2017-08-17T03:48:01.352Z,27.4
2017-08-17T03:49:03.481Z,27.3
2017-08-17T03:50:05.272Z,27.4
2017-08-17T03:51:07.402Z,27.4
2017-08-17T03:52:09.533Z,27.5
2017-08-17T03:53:11.667Z,27.4
2017-08-17T03:54:13.800Z,27.5
2017-08-17T03:55:15.267Z,27.5
2017-08-17T03:56:17.064Z,27.4
2017-08-17T03:57:18.864Z,27.5
2017-08-17T03:58:20.639Z,27.4
2017-08-17T03:59:22.769Z,27.5
2017-08-17T04:00:24.554Z,27.4
2017-08-17T04:01:26.327Z,27.5
2017-08-17T04:02:28.458Z,27.3
2017-08-17T04:03:30.258Z,27.5
2017-08-17T04:04:32.036Z,27.5
2017-08-17T04:05:34.166Z,27.5
2017-08-17T04:06:35.945Z,27.4
2017-08-17T04:07:37.386Z,27.5
2017-08-17T04:08:39.190Z,27.5
2017-08-17T04:09:40.987Z,27.4
2017-08-17T04:10:42.434Z,27.5
2017-08-17T04:11:44.215Z,27.4
2017-08-17T04:12:45.705Z,27.4
2017-08-17T04:13:47.504Z,27.3
2017-08-17T04:14:49.304Z,27.5
2017-08-17T04:15:51.103Z,27.5
2017-08-17T04:16:53.232Z,27.5
2017-08-17T04:17:55.030Z,27.5
2017-08-17T04:18:57.161Z,27.4
2017-08-17T04:19:59.296Z,27.4
2017-08-17T04:21:01.427Z,27.5
2017-08-17T04:22:03.203Z,27.5
2017-08-17T04:23:04.336Z,27.4
2017-08-17T04:24:06.465Z,27.5
2017-08-17T04:25:07.914Z,27.5
2017-08-17T04:26:09.695Z,27.4
2017-08-17T04:27:11.492Z,27.4
2017-08-17T04:28:13.627Z,27.5
2017-08-17T04:29:15.076Z,27.5
2017-08-17T04:30:16.864Z,27.4
2017-08-17T04:31:18.306Z,27.5
2017-08-17T04:32:19.776Z,27.5
2017-08-17T04:33:21.578Z,27.4
2017-08-17T04:34:23.354Z,27.4
2017-08-17T04:35:25.144Z,27.5
2017-08-17T04:36:26.943Z,27.5
2017-08-17T04:37:28.739Z,27.5
2017-08-17T04:38:30.514Z,27.4
2017-08-17T04:39:32.311Z,27.4
2017-08-17T04:40:34.110Z,27.4
2017-08-17T04:41:35.913Z,27.5
2017-08-17T04:42:37.709Z,27.4
2017-08-17T04:43:39.507Z,27.5
2017-08-17T04:44:41.638Z,27.5
2017-08-17T04:45:43.434Z,27.4
2017-08-17T04:46:45.563Z,27.5
2017-08-17T04:47:47.695Z,27.5
2017-08-17T04:48:49.471Z,27.3
2017-08-17T04:49:51.273Z,27.5
2017-08-17T04:50:53.075Z,27.5
2017-08-17T04:51:55.206Z,27.3
2017-08-17T04:52:56.671Z,27.5
2017-08-17T04:53:58.121Z,27.4
2017-08-17T04:54:59.929Z,27.5
2017-08-17T04:56:01.378Z,27.5
2017-08-17T04:57:02.846Z,27.5
2017-08-17T04:58:04.640Z,27.5
2017-08-17T04:59:06.109Z,27.5
2017-08-17T05:00:07.895Z,27.4
2017-08-17T05:01:09.690Z,27.4
2017-08-17T05:02:11.155Z,27.4
2017-08-17T05:03:13.284Z,27.4
2017-08-17T05:04:15.137Z,27.4
2017-08-17T05:05:16.933Z,27.5
2017-08-17T05:06:18.396Z,27.5
2017-08-17T05:07:20.198Z,27.5
2017-08-17T05:08:21.662Z,27.5
2017-08-17T05:09:23.790Z,27.4
2017-08-17T05:10:25.923Z,27.4
2017-08-17T05:11:27.385Z,27.5
2017-08-17T05:12:29.194Z,27.5
2017-08-17T05:13:31.327Z,27.4
2017-08-17T05:14:33.161Z,27.4
2017-08-17T05:15:34.974Z,27.4
2017-08-17T05:16:36.771Z,27.5
2017-08-17T05:17:38.900Z,27.4
2017-08-17T05:18:40.011Z,27.5
2017-08-17T05:19:41.457Z,27.5
2017-08-17T05:20:43.591Z,27.5
2017-08-17T05:21:45.054Z,27.4
2017-08-17T05:22:46.526Z,27.4
2017-08-17T05:23:48.304Z,27.4
2017-08-17T05:24:50.436Z,27.4
2017-08-17T05:25:51.924Z,27.3
2017-08-17T05:26:53.105Z,27.4
2017-08-17T05:27:54.903Z,27.4
2017-08-17T05:28:56.369Z,27.3
2017-08-17T05:29:58.501Z,27.5
2017-08-17T05:31:00.632Z,27.4
2017-08-17T05:32:02.430Z,27.4
2017-08-17T05:33:04.561Z,27.4
2017-08-17T05:34:06.691Z,27.4
2017-08-17T05:35:08.825Z,27.4
2017-08-17T05:36:10.598Z,27.5
2017-08-17T05:37:12.399Z,27.4
2017-08-17T05:38:14.197Z,27.4
2017-08-17T05:39:16.001Z,27.5
2017-08-17T05:40:17.820Z,27.3
2017-08-17T05:41:19.288Z,27.5
2017-08-17T05:42:21.430Z,27.5
2017-08-17T05:43:23.207Z,27.4
2017-08-17T05:44:24.652Z,27.4
2017-08-17T05:45:26.452Z,27.5
2017-08-17T05:46:28.227Z,27.4
2017-08-17T05:47:30.357Z,27.4
2017-08-17T05:48:31.801Z,27.5
2017-08-17T05:49:33.269Z,27.4
2017-08-17T05:50:35.063Z,27.4
2017-08-17T05:51:37.194Z,27.4
2017-08-17T05:52:38.970Z,27.5
2017-08-17T05:53:40.772Z,27.5
2017-08-17T05:54:42.570Z,27.5
2017-08-17T05:55:44.042Z,27.5
2017-08-17T05:56:45.821Z,27.4
2017-08-17T05:57:47.951Z,27.5
2017-08-17T05:58:50.088Z,27.4
2017-08-17T05:59:52.216Z,27.5
2017-08-17T06:00:54.351Z,27.4
2017-08-17T06:01:56.129Z,27.4
2017-08-17T06:02:58.260Z,27.4
2017-08-17T06:04:00.042Z,27.4
2017-08-17T06:05:02.173Z,27.5
2017-08-17T06:06:03.618Z,27.5
2017-08-17T06:07:05.752Z,27.4
2017-08-17T06:08:07.882Z,27.5
2017-08-17T06:09:08.997Z,27.4
2017-08-17T06:10:10.118Z,27.4
2017-08-17T06:11:11.918Z,27.5
2017-08-17T06:12:14.049Z,27.5
2017-08-17T06:13:15.167Z,27.5
2017-08-17T06:14:16.944Z,27.5
2017-08-17T06:15:18.755Z,27.5
2017-08-17T06:16:20.890Z,27.4
2017-08-17T06:17:22.689Z,27.5
2017-08-17T06:18:24.486Z,27.4
2017-08-17T06:19:25.929Z,27.5
2017-08-17T06:20:28.060Z,27.5
2017-08-17T06:21:29.861Z,27.5
2017-08-17T06:22:31.995Z,27.5
2017-08-17T06:23:33.437Z,27.5
2017-08-17T06:24:35.233Z,27.5
2017-08-17T06:25:36.699Z,27.6
2017-08-17T06:26:38.148Z,27.6
2017-08-17T06:27:39.947Z,27.5
2017-08-17T06:28:42.077Z,27.5
2017-08-17T06:29:44.220Z,27.6
2017-08-17T06:30:46.019Z,27.5
2017-08-17T06:31:48.149Z,27.6
2017-08-17T06:32:50.299Z,27.5
2017-08-17T06:33:51.757Z,27.5
2017-08-17T06:34:53.900Z,27.7
2017-08-17T06:35:55.703Z,27.7
2017-08-17T06:36:57.835Z,27.6
2017-08-17T06:37:59.969Z,27.7
2017-08-17T06:39:01.443Z,27.7
2017-08-17T06:40:03.239Z,27.6
2017-08-17T06:41:05.039Z,27.7
2017-08-17T06:42:06.838Z,27.7
2017-08-17T06:43:08.638Z,27.7
2017-08-17T06:44:10.771Z,27.6
2017-08-17T06:45:12.903Z,27.7
2017-08-17T06:46:15.050Z,27.7
2017-08-17T06:47:17.186Z,27.6
2017-08-17T06:48:18.986Z,27.7
2017-08-17T06:49:20.807Z,27.7
2017-08-17T06:50:22.938Z,27.7
2017-08-17T06:51:24.392Z,27.7
2017-08-17T06:52:26.191Z,27.7
2017-08-17T06:53:27.653Z,27.8
2017-08-17T06:54:29.479Z,27.8
2017-08-17T06:55:31.612Z,27.7
2017-08-17T06:56:33.063Z,27.6
2017-08-17T06:57:34.845Z,27.8
2017-08-17T06:58:36.643Z,27.7
2017-08-17T06:59:38.099Z,27.8
2017-08-17T07:00:39.239Z,27.8
2017-08-17T07:01:41.024Z,27.7
2017-08-17T07:02:42.824Z,27.8
2017-08-17T07:03:44.957Z,27.8
2017-08-17T07:04:46.737Z,27.8
2017-08-17T07:05:48.546Z,27.8
2017-08-17T07:06:50.680Z,27.9
2017-08-17T07:07:52.486Z,27.8
2017-08-17T07:08:53.936Z,27.9
2017-08-17T07:09:55.735Z,27.9
2017-08-17T07:10:57.872Z,27.8
2017-08-17T07:11:59.678Z,27.9
2017-08-17T07:13:01.490Z,27.8
2017-08-17T07:14:03.619Z,27.8
2017-08-17T07:15:05.414Z,27.9
2017-08-17T07:16:06.882Z,27.9
2017-08-17T07:17:08.662Z,27.9
2017-08-17T07:18:10.129Z,27.9
2017-08-17T07:19:12.307Z,28
2017-08-17T07:20:14.454Z,27.9
2017-08-17T07:21:16.235Z,27.9
2017-08-17T07:22:18.367Z,27.9
2017-08-17T07:23:20.509Z,27.9
2017-08-17T07:24:22.647Z,27.9
2017-08-17T07:25:24.425Z,27.9
2017-08-17T07:26:26.227Z,27.9
2017-08-17T07:27:28.004Z,28
2017-08-17T07:28:30.143Z,27.9
2017-08-17T07:29:31.608Z,27.9
2017-08-17T07:30:32.752Z,27.9
2017-08-17T07:31:34.550Z,27.9
2017-08-17T07:32:36.681Z,27.9
2017-08-17T07:33:38.813Z,27.9
2017-08-17T07:34:40.947Z,28
2017-08-17T07:35:43.078Z,28
2017-08-17T07:36:44.859Z,28
2017-08-17T07:37:46.659Z,28
2017-08-17T07:38:48.464Z,28
2017-08-17T07:39:50.266Z,28
2017-08-17T07:40:52.068Z,28
2017-08-17T07:41:53.869Z,28
2017-08-17T07:42:56.053Z,28
2017-08-17T07:43:57.850Z,28
2017-08-17T07:44:59.988Z,28
2017-08-17T07:46:01.430Z,28
2017-08-17T07:47:03.236Z,28
2017-08-17T07:48:05.033Z,28
2017-08-17T07:49:06.833Z,27.9
2017-08-17T07:50:08.965Z,27.9
2017-08-17T07:51:10.420Z,28
2017-08-17T07:52:11.867Z,28
2017-08-17T07:53:13.675Z,28
2017-08-17T07:54:15.478Z,28
2017-08-17T07:55:16.931Z,28
2017-08-17T07:56:19.066Z,28
2017-08-17T07:57:21.854Z,28
2017-08-17T07:58:23.414Z,28
2017-08-17T07:59:25.033Z,28
2017-08-17T08:00:27.179Z,28
2017-08-17T08:01:29.319Z,28
2017-08-17T08:02:31.118Z,28
2017-08-17T08:03:33.322Z,27.9
2017-08-17T08:04:34.797Z,28
2017-08-17T08:05:36.578Z,28
2017-08-17T08:06:38.385Z,28.1
2017-08-17T08:07:40.520Z,28.1
2017-08-17T08:08:42.328Z,28.1
2017-08-17T08:09:44.135Z,28.1
2017-08-17T08:10:45.936Z,28.1
2017-08-17T08:11:48.074Z,28.1
2017-08-17T08:12:49.544Z,28.1
2017-08-17T08:13:51.325Z,28.2
2017-08-17T08:14:53.461Z,28.1
2017-08-17T08:15:54.909Z,28.2
2017-08-17T08:16:56.698Z,28.1
2017-08-17T08:17:58.832Z,28.1
2017-08-17T08:19:00.632Z,28.1
2017-08-17T08:20:02.432Z,28.1
2017-08-17T08:21:03.884Z,28.2
2017-08-17T08:22:05.336Z,28.1
2017-08-17T08:23:07.143Z,28.1
2017-08-17T08:24:08.606Z,28.1
2017-08-17T08:25:10.055Z,28.1
2017-08-17T08:26:11.859Z,28.2
2017-08-17T08:27:13.996Z,28.2
2017-08-17T08:28:15.440Z,28.2
2017-08-17T08:29:17.247Z,28.1
2017-08-17T08:30:18.721Z,28.2
2017-08-17T08:31:20.854Z,28.2
2017-08-17T08:32:22.313Z,28.2
2017-08-17T08:33:24.100Z,28.2
2017-08-17T08:34:25.237Z,28.1
2017-08-17T08:35:27.371Z,28.2
2017-08-17T08:36:29.508Z,28.2
2017-08-17T08:37:31.324Z,28.2
2017-08-17T08:38:33.458Z,28.2
2017-08-17T08:39:34.927Z,28.2
2017-08-17T08:40:36.382Z,28.3
2017-08-17T08:41:38.188Z,28.3
2017-08-17T08:42:40.320Z,28.3
2017-08-17T08:43:42.136Z,28.2
2017-08-17T08:44:43.252Z,28.2
2017-08-17T08:45:45.055Z,28.2
2017-08-17T08:46:46.861Z,28.3
2017-08-17T08:47:48.333Z,28.2
2017-08-17T08:48:50.463Z,28.2
2017-08-17T08:49:52.596Z,28.3
2017-08-17T08:50:54.737Z,28.4
2017-08-17T08:51:56.193Z,28.4
2017-08-17T08:52:57.656Z,28.3
2017-08-17T08:53:59.457Z,28.4
2017-08-17T08:55:01.271Z,28.3
2017-08-17T08:56:02.739Z,28.4
2017-08-17T08:57:04.541Z,28.3
2017-08-17T08:58:06.344Z,28.3
2017-08-17T08:59:07.791Z,28.3
2017-08-17T09:00:09.588Z,28.4
2017-08-17T09:01:11.413Z,28.3
2017-08-17T09:02:13.544Z,28.4
2017-08-17T09:03:15.020Z,28.4
2017-08-17T09:04:15.796Z,28.4
2017-08-17T09:05:17.931Z,28.3
2017-08-17T09:06:19.736Z,28.3
2017-08-17T09:07:21.871Z,28.3
2017-08-17T09:08:23.671Z,28.3
2017-08-17T09:09:25.124Z,28.4
2017-08-17T09:10:26.570Z,28.3
2017-08-17T09:11:28.041Z,28.4
2017-08-17T09:12:30.181Z,28.4
2017-08-17T09:13:32.316Z,28.3
2017-08-17T09:14:34.119Z,28.3
2017-08-17T09:15:36.297Z,28.3
2017-08-17T09:16:38.430Z,28.3
2017-08-17T09:17:40.233Z,28.4
2017-08-17T09:18:42.371Z,28.3
2017-08-17T09:19:43.837Z,28.4
2017-08-17T09:20:45.303Z,28.4
2017-08-17T09:21:46.411Z,28.4
2017-08-17T09:22:48.546Z,28.3
2017-08-17T09:23:50.679Z,28.3
2017-08-17T09:24:52.478Z,28.3
2017-08-17T09:25:54.281Z,28.3
2017-08-17T09:26:56.415Z,28.4
2017-08-17T09:27:57.725Z,28.3
2017-08-17T09:28:59.526Z,28.4
2017-08-17T09:30:01.333Z,28.4
2017-08-17T09:31:03.469Z,28.3
2017-08-17T09:32:05.248Z,28.3
2017-08-17T09:33:07.054Z,28.4
2017-08-17T09:34:09.190Z,28.4
2017-08-17T09:35:10.638Z,28.4
2017-08-17T09:36:12.443Z,28.4
2017-08-17T09:37:13.904Z,28.3
2017-08-17T09:38:16.038Z,28.3
2017-08-17T09:39:17.836Z,28.3
2017-08-17T09:40:19.969Z,28.4
2017-08-17T09:41:21.774Z,28.4
2017-08-17T09:42:23.583Z,28.4
2017-08-17T09:43:25.037Z,28.4
2017-08-17T09:44:26.178Z,28.4
2017-08-17T09:45:28.362Z,28.4
2017-08-17T09:46:30.511Z,28.4
2017-08-17T09:47:32.317Z,28.4
2017-08-17T09:48:34.111Z,28.4
2017-08-17T09:49:34.902Z,28.4
2017-08-17T09:50:37.177Z,28.5
2017-08-17T09:51:38.980Z,28.4
2017-08-17T09:52:41.110Z,28.5
2017-08-17T09:53:42.911Z,28.4
2017-08-17T09:54:44.034Z,28.5
2017-08-17T09:55:45.498Z,28.4
2017-08-17T09:56:47.633Z,28.4
2017-08-17T09:57:49.430Z,28.4
2017-08-17T09:58:51.235Z,28.4
2017-08-17T09:59:53.040Z,28.5
2017-08-17T10:00:55.175Z,28.4
2017-08-17T10:01:56.978Z,28.4
2017-08-17T10:02:58.764Z,28.4
2017-08-17T10:04:00.568Z,28.4
2017-08-17T10:05:02.349Z,28.4
2017-08-17T10:06:04.484Z,28.4
2017-08-17T10:07:06.332Z,28.4
2017-08-17T10:08:07.782Z,28.4
2017-08-17T10:09:09.228Z,28.5
2017-08-17T10:10:11.029Z,28.4
2017-08-17T10:11:12.811Z,28.5
2017-08-17T10:12:14.280Z,28.4
2017-08-17T10:13:16.418Z,28.5
2017-08-17T10:14:17.905Z,28.5
2017-08-17T10:15:19.684Z,28.5
2017-08-17T10:16:21.825Z,28.5
2017-08-17T10:17:23.301Z,28.5
2017-08-17T10:18:24.766Z,28.5
2017-08-17T10:19:26.547Z,28.5
2017-08-17T10:20:28.346Z,28.6
2017-08-17T10:21:30.482Z,28.5
2017-08-17T10:22:32.617Z,28.5
2017-08-17T10:23:34.422Z,28.5
2017-08-17T10:24:36.561Z,28.6
2017-08-17T10:25:38.359Z,28.5
2017-08-17T10:26:40.499Z,28.6
2017-08-17T10:27:42.297Z,28.5
2017-08-17T10:28:43.409Z,28.6
2017-08-17T10:29:45.541Z,28.6
2017-08-17T10:30:46.658Z,28.6
2017-08-17T10:31:48.131Z,28.5
2017-08-17T10:32:49.930Z,28.6
2017-08-17T10:33:51.405Z,28.7
2017-08-17T10:34:52.517Z,28.7
2017-08-17T10:35:54.305Z,28.6
2017-08-17T10:36:56.085Z,28.6
2017-08-17T10:37:57.529Z,28.6
2017-08-17T10:38:59.695Z,28.7
2017-08-17T10:40:01.497Z,28.6
2017-08-17T10:41:03.302Z,28.6
2017-08-17T10:42:05.107Z,28.6
2017-08-17T10:43:07.244Z,28.7
2017-08-17T10:44:09.048Z,28.6
2017-08-17T10:45:11.179Z,28.6
2017-08-17T10:46:11.960Z,28.6
2017-08-17T10:47:13.735Z,28.6
2017-08-17T10:48:15.529Z,28.6
2017-08-17T10:49:17.331Z,28.6
2017-08-17T10:50:19.132Z,28.6
2017-08-17T10:51:20.943Z,28.6
2017-08-17T10:52:23.079Z,28.7
2017-08-17T10:53:25.216Z,28.7
2017-08-17T10:54:27.353Z,28.6
2017-08-17T10:55:28.466Z,28.7
2017-08-17T10:56:29.912Z,28.7
2017-08-17T10:57:31.354Z,28.7
2017-08-17T10:58:33.153Z,28.7
2017-08-17T10:59:35.285Z,28.7
2017-08-17T11:00:36.734Z,28.7
2017-08-17T11:01:38.535Z,28.8
2017-08-17T11:02:40.337Z,28.7
2017-08-17T11:03:41.855Z,28.7
2017-08-17T11:04:43.661Z,28.7
2017-08-17T11:05:45.464Z,28.7
2017-08-17T11:06:46.935Z,28.7
2017-08-17T11:07:48.714Z,28.8
2017-08-17T11:08:50.190Z,28.8
2017-08-17T11:09:52.320Z,28.8
2017-08-17T11:10:54.123Z,28.7
2017-08-17T11:11:55.924Z,28.8
2017-08-17T11:12:57.061Z,28.8
2017-08-17T11:13:58.863Z,28.7
2017-08-17T11:15:00.657Z,28.8
2017-08-17T11:16:02.788Z,28.9
2017-08-17T11:17:04.238Z,28.9
2017-08-17T11:18:06.367Z,28.8
2017-08-17T11:19:07.838Z,28.8
2017-08-17T11:20:09.285Z,28.8
2017-08-17T11:21:11.069Z,28.8
2017-08-17T11:22:12.873Z,28.9
2017-08-17T11:23:14.675Z,28.8
2017-08-17T11:24:15.793Z,28.8
2017-08-17T11:25:17.599Z,28.8
2017-08-17T11:26:19.729Z,28.9
2017-08-17T11:27:20.853Z,28.8
2017-08-17T11:28:22.632Z,28.8
2017-08-17T11:29:24.438Z,28.8
2017-08-17T11:30:26.248Z,28.8
2017-08-17T11:31:27.719Z,28.9
2017-08-17T11:32:29.210Z,28.8
2017-08-17T11:33:31.103Z,28.8
2017-08-17T11:34:33.232Z,28.9
2017-08-17T11:35:35.037Z,28.8
2017-08-17T11:36:36.483Z,28.9
2017-08-17T11:37:38.613Z,28.9
2017-08-17T11:38:40.400Z,28.9
2017-08-17T11:39:42.636Z,28.9
2017-08-17T11:40:44.084Z,28.8
2017-08-17T11:41:45.868Z,28.9
2017-08-17T11:42:48.001Z,28.9
2017-08-17T11:43:50.138Z,29
2017-08-17T11:44:51.933Z,29
2017-08-17T11:45:53.053Z,29
2017-08-17T11:46:54.521Z,29
2017-08-17T11:47:56.319Z,29
2017-08-17T11:48:58.452Z,29
2017-08-17T11:49:59.927Z,29
2017-08-17T11:51:02.060Z,28.9
2017-08-17T11:52:04.190Z,28.9
2017-08-17T11:53:05.301Z,29
2017-08-17T11:54:07.437Z,29
2017-08-17T11:55:09.569Z,29
2017-08-17T11:56:11.370Z,29
2017-08-17T11:57:12.820Z,28.9
2017-08-17T11:58:13.957Z,28.9
2017-08-17T11:59:16.091Z,29
2017-08-17T12:00:18.227Z,28.9
2017-08-17T12:01:20.028Z,28.9
2017-08-17T12:02:22.161Z,28.9
2017-08-17T12:03:23.282Z,29
2017-08-17T12:04:25.421Z,28.9
2017-08-17T12:05:27.225Z,29
2017-08-17T12:06:29.027Z,29
2017-08-17T12:07:31.162Z,29
2017-08-17T12:08:32.618Z,28.9
2017-08-17T12:09:34.760Z,29
2017-08-17T12:10:36.896Z,29
2017-08-17T12:11:38.371Z,29
2017-08-17T12:12:39.821Z,29
2017-08-17T12:13:41.961Z,29
2017-08-17T12:14:43.408Z,29
2017-08-17T12:15:45.193Z,29
2017-08-17T12:16:46.661Z,29
2017-08-17T12:17:48.797Z,29.1
2017-08-17T12:18:50.600Z,29
2017-08-17T12:19:52.731Z,29.1
2017-08-17T12:20:54.536Z,29.1
2017-08-17T12:21:56.675Z,29
2017-08-17T12:22:58.475Z,29
2017-08-17T12:24:00.616Z,29.1
2017-08-17T12:25:02.395Z,29
2017-08-17T12:26:04.530Z,29.1
2017-08-17T12:27:06.665Z,29
2017-08-17T12:28:08.475Z,29
2017-08-17T12:29:10.265Z,29
2017-08-17T12:30:12.616Z,29
2017-08-17T12:31:14.938Z,29
2017-08-17T12:32:16.746Z,29
2017-08-17T12:33:18.663Z,29.1
2017-08-17T12:34:20.456Z,29
2017-08-17T12:35:22.362Z,29
2017-08-17T12:36:24.166Z,29
2017-08-17T12:37:25.614Z,29
2017-08-17T12:38:27.419Z,29
2017-08-17T12:39:29.560Z,29.1
2017-08-17T12:40:31.026Z,29.1
2017-08-17T12:41:32.827Z,29
2017-08-17T12:42:34.969Z,29
2017-08-17T12:43:36.759Z,29.1
2017-08-17T12:44:38.893Z,29.1
2017-08-17T12:45:40.699Z,29.1
2017-08-17T12:46:42.160Z,29.1
2017-08-17T12:47:44.300Z,29.1
2017-08-17T12:48:45.747Z,29.1
2017-08-17T12:49:47.213Z,29
2017-08-17T12:50:48.680Z,29.1
2017-08-17T12:51:50.486Z,29.1
2017-08-17T12:52:52.293Z,29.1
2017-08-17T12:53:54.426Z,29.1
2017-08-17T12:54:55.873Z,29.1
2017-08-17T12:55:57.685Z,29.1
2017-08-17T12:56:59.818Z,29
2017-08-17T12:58:01.971Z,29.1
2017-08-17T12:59:03.773Z,29
2017-08-17T13:00:05.298Z,29
2017-08-17T13:01:07.461Z,29
2017-08-17T13:02:08.929Z,29.1
2017-08-17T13:03:10.762Z,29.1
2017-08-17T13:04:12.920Z,29
2017-08-17T13:05:14.718Z,29
2017-08-17T13:06:16.518Z,29.1
2017-08-17T13:07:18.837Z,29.1
2017-08-17T13:08:20.970Z,29.1
2017-08-17T13:09:22.452Z,29.1
2017-08-17T13:10:24.007Z,29.1
2017-08-17T13:11:25.798Z,29.1
2017-08-17T13:12:27.279Z,29.1
2017-08-17T13:13:29.148Z,29.1
2017-08-17T13:14:31.287Z,29.1
2017-08-17T13:15:33.072Z,29.1
2017-08-17T13:16:35.406Z,29.1
2017-08-17T13:17:37.188Z,29.1
2017-08-17T13:18:38.991Z,29
2017-08-17T13:19:40.774Z,29
2017-08-17T13:20:42.912Z,29
2017-08-17T13:21:44.798Z,29
2017-08-17T13:22:46.313Z,29
2017-08-17T13:23:48.113Z,29
2017-08-17T13:24:49.581Z,29
2017-08-17T13:25:50.700Z,29
2017-08-17T13:26:52.504Z,29
2017-08-17T13:27:54.643Z,29
2017-08-17T13:28:56.443Z,29
2017-08-17T13:29:57.915Z,28.9
2017-08-17T13:30:59.720Z,29
2017-08-17T13:32:01.501Z,29
2017-08-17T13:33:03.305Z,29
2017-08-17T13:34:05.082Z,29
2017-08-17T13:35:06.861Z,29
2017-08-17T13:36:08.664Z,28.9
2017-08-17T13:37:10.250Z,29
2017-08-17T13:38:12.057Z,28.9
2017-08-17T13:39:13.861Z,28.9
2017-08-17T13:40:15.994Z,28.9
2017-08-17T13:41:17.800Z,29
2017-08-17T13:42:18.916Z,28.9
2017-08-17T13:43:20.720Z,28.9
2017-08-17T13:44:22.855Z,29
2017-08-17T13:45:24.661Z,28.9
2017-08-17T13:46:26.462Z,29
2017-08-17T13:47:27.911Z,28.9
2017-08-17T13:48:30.047Z,28.9
2017-08-17T13:49:31.847Z,29
2017-08-17T13:50:33.315Z,28.9
2017-08-17T13:51:35.448Z,28.9